Time;durP1;ratioP1;P1;durP2;ratioP2;P2;SDS_P1;SDS_P2;PMS_P1;PMS_P2;Temp;Humidity;BMP_temperature;BMP_pressure;BME280_temperature;BME280_humidity;BME280_pressure;Samples;Min_cycle;Max_cycle;Signal;HPM_P1;HPM_P2
2023/10/29 00:01:02;;;;;;;1.40;0.70;;;11.50;99.90;;;;;;5033517;28;20044;-58
2023/10/29 00:03:28;;;;;;;5.35;0.50;;;11.40;99.90;;;;;;5033472;28;20067;-57
2023/10/29 00:05:53;;;;;;;2.83;0.73;;;11.50;99.90;;;;;;5033564;28;20033;-59
2023/10/29 00:08:19;;;;;;;1.85;0.57;;;11.50;99.90;;;;;;5033324;28;20028;-59
2023/10/29 00:10:44;;;;;;;3.83;1.65;;;11.50;99.90;;;;;;5033329;28;20068;-58
2023/10/29 00:13:10;;;;;;;0.73;0.40;;;11.50;99.90;;;;;;5033183;28;20064;-60
2023/10/29 00:15:36;;;;;;;4.47;0.75;;;11.50;99.90;;;;;;5033188;28;20103;-59
2023/10/29 00:18:01;;;;;;;6.63;0.98;;;11.50;99.90;;;;;;5033391;28;20049;-58
2023/10/29 00:20:27;;;;;;;2.50;0.60;;;11.50;99.90;;;;;;5033189;28;20156;-60
2023/10/29 00:22:52;;;;;;;2.97;0.50;;;11.50;99.90;;;;;;5033099;28;20018;-59
2023/10/29 00:25:18;;;;;;;7.80;1.08;;;11.50;99.90;;;;;;5033135;28;20044;-59
2023/10/29 00:27:44;;;;;;;1.73;0.60;;;11.50;99.90;;;;;;5032956;28;20053;-59
2023/10/29 00:30:10;;;;;;;3.88;0.60;;;11.50;99.90;;;;;;5033038;28;20041;-59
2023/10/29 00:32:36;;;;;;;3.65;0.50;;;11.50;99.90;;;;;;5032944;28;20358;-58
2023/10/29 00:35:01;;;;;;;4.50;0.70;;;11.50;99.90;;;;;;5033050;28;20040;-59
2023/10/29 00:37:27;;;;;;;0.70;0.35;;;11.50;99.90;;;;;;5033032;28;20025;-58
2023/10/29 00:39:53;;;;;;;3.85;0.50;;;11.50;99.90;;;;;;5032697;28;20492;-58
2023/10/29 00:42:19;;;;;;;1.05;0.60;;;11.50;99.90;;;;;;5032096;28;20128;-60
2023/10/29 00:44:45;;;;;;;4.97;0.90;;;11.50;99.90;;;;;;5032574;28;20484;-58
2023/10/29 00:47:11;;;;;;;1.10;0.45;;;11.50;99.90;;;;;;5032975;28;20037;-58
2023/10/29 00:49:37;;;;;;;0.57;0.40;;;11.50;99.90;;;;;;5032815;28;20490;-58
2023/10/29 00:52:03;;;;;;;2.75;0.70;;;11.50;99.90;;;;;;5032659;28;20029;-58
2023/10/29 00:54:29;;;;;;;2.35;0.50;;;11.50;99.90;;;;;;5032772;28;20427;-58
2023/10/29 00:56:56;;;;;;;1.02;0.55;;;11.50;99.90;;;;;;5032404;28;20491;-56
2023/10/29 00:59:22;;;;;;;3.85;0.70;;;11.50;99.90;;;;;;5032308;28;20140;-59
2023/10/29 01:01:48;;;;;;;2.20;0.68;;;11.50;99.90;;;;;;5032510;28;20032;-56
2023/10/29 01:04:14;;;;;;;1.27;0.47;;;11.50;99.90;;;;;;5032624;28;20021;-59
2023/10/29 01:06:41;;;;;;;4.18;0.80;;;11.50;99.90;;;;;;5032307;28;20388;-59
2023/10/29 01:09:07;;;;;;;1.85;0.55;;;11.50;99.90;;;;;;5032230;28;20385;-59
2023/10/29 01:11:33;;;;;;;1.20;0.50;;;11.50;99.90;;;;;;5032378;28;20037;-59
2023/10/29 01:14:00;;;;;;;0.40;0.30;;;11.40;99.90;;;;;;5031901;28;20022;-58
2023/10/29 01:16:27;;;;;;;2.97;0.50;;;11.40;99.90;;;;;;5032361;28;20491;-58
2023/10/29 01:18:56;;;;;;;0.52;0.50;;;11.40;99.90;;;;;;5032323;28;20084;-59
2023/10/29 01:21:24;;;;;;;2.20;0.50;;;11.40;99.90;;;;;;5032273;28;20500;-59
2023/10/29 01:23:49;;;;;;;2.15;0.30;;;11.20;99.90;;;;;;5032052;28;20029;-59
2023/10/29 01:26:15;;;;;;;0.98;0.25;;;11.00;99.90;;;;;;5031945;28;20118;-58
2023/10/29 01:28:40;;;;;;;0.20;0.20;;;10.90;99.90;;;;;;5031900;28;20103;-58
2023/10/29 01:31:06;;;;;;;1.42;0.50;;;10.80;99.90;;;;;;5031903;28;20111;-58
2023/10/29 01:33:32;;;;;;;0.57;0.30;;;10.70;99.90;;;;;;5032036;28;20045;-58
2023/10/29 01:35:58;;;;;;;3.50;0.28;;;10.60;99.90;;;;;;5031862;28;20116;-58
2023/10/29 01:38:23;;;;;;;2.05;0.38;;;10.60;99.90;;;;;;5031723;28;20531;-58
2023/10/29 01:40:49;;;;;;;1.13;0.40;;;10.50;99.90;;;;;;5031539;28;20037;-59
2023/10/29 01:43:16;;;;;;;1.98;0.45;;;10.50;99.90;;;;;;5031195;28;20435;-58
2023/10/29 01:45:41;;;;;;;1.08;0.38;;;10.50;99.90;;;;;;5031628;28;20026;-59
2023/10/29 01:48:07;;;;;;;1.92;0.57;;;10.40;99.90;;;;;;5031629;28;20071;-59
2023/10/29 01:50:32;;;;;;;0.52;0.30;;;10.40;99.90;;;;;;5031666;28;20029;-58
2023/10/29 01:52:58;;;;;;;1.17;0.35;;;10.40;99.90;;;;;;5031613;28;20071;-58
2023/10/29 01:55:24;;;;;;;2.10;0.30;;;10.40;99.90;;;;;;5031352;28;20021;-59
2023/10/29 01:57:50;;;;;;;1.00;0.35;;;10.40;99.90;;;;;;5031754;28;20423;-60
2023/10/29 02:00:16;;;;;;;0.52;0.38;;;10.40;99.90;;;;;;5030827;28;20536;-58
2023/10/29 02:02:42;;;;;;;1.60;0.60;;;10.40;99.90;;;;;;5031321;28;20044;-59
2023/10/29 02:05:07;;;;;;;2.20;0.50;;;10.40;99.90;;;;;;5031267;28;20037;-58
2023/10/29 02:07:33;;;;;;;0.43;0.32;;;10.40;99.90;;;;;;5031276;28;20100;-59
2023/10/29 02:09:59;;;;;;;0.45;0.35;;;10.50;99.90;;;;;;5031560;28;20113;-58
2023/10/29 02:12:25;;;;;;;2.63;0.50;;;10.50;99.90;;;;;;5031012;28;20101;-59
2023/10/29 02:14:50;;;;;;;19.77;0.88;;;10.50;99.90;;;;;;5031304;28;20048;-59
2023/10/29 02:17:16;;;;;;;1.15;0.60;;;10.50;99.90;;;;;;5030982;28;20481;-60
2023/10/29 02:19:41;;;;;;;3.05;1.50;;;10.60;99.90;;;;;;5031101;28;20044;-58
2023/10/29 02:22:07;;;;;;;7.03;1.35;;;10.70;99.90;;;;;;5031035;28;20025;-59
2023/10/29 02:24:33;;;;;;;4.57;0.90;;;10.80;99.90;;;;;;5030991;28;20441;-59
2023/10/29 02:26:58;;;;;;;5.85;0.80;;;10.80;99.90;;;;;;5031000;28;20033;-59
2023/10/29 02:29:24;;;;;;;2.92;0.70;;;10.80;99.90;;;;;;5030599;28;20028;-61
2023/10/29 02:31:49;;;;;;;1.75;0.85;;;10.80;99.90;;;;;;5030952;28;20119;-61
2023/10/29 02:34:15;;;;;;;3.50;0.63;;;10.80;99.90;;;;;;5030855;28;20048;-61
2023/10/29 02:36:40;;;;;;;4.28;1.17;;;10.80;99.90;;;;;;5030909;28;20029;-59
2023/10/29 02:39:06;;;;;;;5.97;1.20;;;10.80;99.90;;;;;;5030978;28;20067;-61
2023/10/29 02:41:32;;;;;;;6.13;0.95;;;10.80;99.90;;;;;;5030754;28;20461;-60
2023/10/29 02:43:58;;;;;;;6.72;1.27;;;10.80;99.90;;;;;;5030392;28;20033;-59
2023/10/29 02:46:25;;;;;;;8.23;0.80;;;10.80;99.90;;;;;;5030581;28;20489;-61
2023/10/29 02:48:51;;;;;;;7.93;1.63;;;10.90;99.90;;;;;;5030703;28;20064;-60
2023/10/29 02:51:17;;;;;;;4.88;0.80;;;10.90;99.90;;;;;;5030478;28;20045;-60
2023/10/29 02:53:42;;;;;;;3.78;1.33;;;10.90;99.90;;;;;;5030630;28;20033;-61
2023/10/29 02:56:08;;;;;;;8.02;0.82;;;10.90;99.90;;;;;;5012850;28;20072;-59
2023/10/29 02:58:35;;;;;;;5.28;1.40;;;10.90;99.90;;;;;;5030148;28;20045;-54
2023/10/29 03:01:08;;;;;;;5.55;1.10;;;10.80;99.90;;;;;;5030503;28;20041;-60
2023/10/29 03:03:35;;;;;;;1.30;0.70;;;10.80;99.90;;;;;;5030368;28;20083;-59
2023/10/29 03:06:08;;;;;;;1.10;0.50;;;10.80;99.90;;;;;;5032971;28;20030;-61
2023/10/29 03:08:34;;;;;;;6.53;0.82;;;10.80;99.90;;;;;;5036979;28;20033;-61
2023/10/29 03:11:00;;;;;;;4.53;0.70;;;10.70;99.90;;;;;;5037163;28;20104;-60
2023/10/29 03:13:25;;;;;;;4.93;0.90;;;10.80;99.90;;;;;;5036772;28;20124;-56
2023/10/29 03:15:51;;;;;;;4.63;0.90;;;10.80;99.90;;;;;;5036816;28;20042;-51
2023/10/29 03:18:17;;;;;;;8.23;1.10;;;10.80;99.90;;;;;;5036960;28;20092;-60
2023/10/29 03:20:43;;;;;;;2.17;0.70;;;10.80;99.90;;;;;;5036724;28;20484;-59
2023/10/29 03:23:08;;;;;;;2.75;0.80;;;10.80;99.90;;;;;;5037042;28;20151;-61
2023/10/29 03:25:34;;;;;;;5.93;0.85;;;10.80;99.90;;;;;;5036777;28;20404;-62
2023/10/29 03:28:00;;;;;;;3.15;0.60;;;10.80;99.90;;;;;;5036518;28;20032;-60
2023/10/29 03:30:25;;;;;;;5.68;1.05;;;10.90;99.90;;;;;;5036869;28;20037;-57
2023/10/29 03:32:51;;;;;;;7.13;0.80;;;10.70;99.90;;;;;;5036724;28;20025;-60
2023/10/29 03:35:17;;;;;;;3.95;0.90;;;10.70;99.90;;;;;;5036780;28;20035;-61
2023/10/29 03:37:43;;;;;;;3.53;0.77;;;10.70;99.90;;;;;;5035668;28;20048;-59
2023/10/29 03:40:09;;;;;;;2.67;0.55;;;10.60;99.90;;;;;;5036455;28;20472;-57
2023/10/29 03:42:34;;;;;;;3.63;0.77;;;10.60;99.90;;;;;;5036528;28;20021;-59
2023/10/29 03:45:00;;;;;;;1.88;0.80;;;10.60;99.90;;;;;;5036507;28;20388;-59
2023/10/29 03:47:26;;;;;;;5.13;0.85;;;10.60;99.90;;;;;;5036451;28;20036;-58
2023/10/29 03:49:51;;;;;;;1.92;0.70;;;10.60;99.90;;;;;;5036444;28;20040;-59
2023/10/29 03:52:20;;;;;;;5.40;1.27;;;10.50;99.90;;;;;;5036548;28;20021;-58
2023/10/29 03:54:45;;;;;;;2.20;0.75;;;10.50;99.90;;;;;;5036507;28;20490;-58
2023/10/29 03:57:11;;;;;;;3.75;0.82;;;10.40;99.90;;;;;;5036533;28;20030;-58
2023/10/29 03:59:37;;;;;;;2.40;0.63;;;10.40;99.90;;;;;;5036126;28;20049;-58
2023/10/29 04:02:03;;;;;;;4.13;0.75;;;10.40;99.90;;;;;;5036415;28;20090;-58
2023/10/29 04:04:29;;;;;;;1.13;0.45;;;10.30;99.90;;;;;;5036521;28;20094;-59
2023/10/29 04:06:55;;;;;;;1.40;0.60;;;10.30;99.90;;;;;;5036545;28;20083;-58
2023/10/29 04:09:20;;;;;;;6.35;1.05;;;10.20;99.90;;;;;;5036420;28;20029;-60
2023/10/29 04:11:46;;;;;;;6.07;0.82;;;10.20;99.90;;;;;;5036219;28;20064;-59
2023/10/29 04:14:11;;;;;;;7.18;0.57;;;10.30;99.90;;;;;;5036304;28;20025;-59
2023/10/29 04:16:37;;;;;;;2.55;0.77;;;10.30;99.90;;;;;;5036132;28;20096;-57
2023/10/29 04:19:03;;;;;;;3.72;0.50;;;10.30;99.90;;;;;;5032108;28;20035;-60
2023/10/29 04:21:28;;;;;;;4.20;0.50;;;10.40;99.90;;;;;;5033272;28;20053;-58
2023/10/29 04:23:54;;;;;;;5.15;0.95;;;10.40;99.90;;;;;;5033119;28;20108;-61
2023/10/29 04:26:19;;;;;;;2.65;0.82;;;10.30;99.90;;;;;;5033559;28;20388;-60
2023/10/29 04:28:45;;;;;;;1.08;0.60;;;10.30;99.90;;;;;;5032922;28;20108;-67
2023/10/29 04:31:11;;;;;;;3.45;0.45;;;10.20;99.90;;;;;;5033040;28;20412;-61
2023/10/29 04:33:38;;;;;;;6.15;0.80;;;10.20;99.90;;;;;;5033160;28;20112;-59
2023/10/29 04:36:04;;;;;;;3.10;0.68;;;10.20;99.90;;;;;;5032886;28;20032;-60
2023/10/29 04:38:31;;;;;;;2.92;0.82;;;10.10;99.90;;;;;;5033251;28;20041;-61
2023/10/29 04:40:57;;;;;;;1.77;0.60;;;10.10;99.90;;;;;;5032785;28;20084;-63
2023/10/29 04:43:22;;;;;;;2.30;0.85;;;10.10;99.90;;;;;;5032735;28;20021;-59
2023/10/29 04:45:48;;;;;;;1.20;0.50;;;10.00;99.90;;;;;;5032663;28;20022;-56
2023/10/29 04:48:14;;;;;;;3.05;0.82;;;10.00;99.90;;;;;;5032637;28;20109;-63
2023/10/29 04:50:39;;;;;;;2.45;0.70;;;10.00;99.90;;;;;;5032697;28;20029;-55
2023/10/29 04:53:05;;;;;;;3.67;0.77;;;10.00;99.90;;;;;;5032696;28;20026;-60
2023/10/29 04:55:31;;;;;;;5.55;0.90;;;10.00;99.90;;;;;;5032648;28;20029;-64
2023/10/29 04:57:57;;;;;;;2.50;0.60;;;10.00;99.90;;;;;;5032526;28;20029;-60
2023/10/29 05:00:23;;;;;;;3.03;0.73;;;10.00;99.90;;;;;;5031998;28;20041;-62
2023/10/29 05:02:48;;;;;;;3.53;0.70;;;9.90;99.90;;;;;;5032761;28;20503;-62
2023/10/29 05:05:14;;;;;;;0.82;0.40;;;9.80;99.90;;;;;;5032263;28;20473;-61
2023/10/29 05:07:41;;;;;;;2.58;0.70;;;9.90;99.90;;;;;;5032460;28;20167;-60
2023/10/29 05:10:07;;;;;;;2.58;0.50;;;9.80;99.90;;;;;;5032336;28;20028;-61
2023/10/29 05:12:32;;;;;;;2.45;0.70;;;9.80;99.90;;;;;;5032336;28;20021;-62
2023/10/29 05:14:58;;;;;;;3.33;0.65;;;9.80;99.90;;;;;;5032003;28;20112;-61
2023/10/29 05:17:23;;;;;;;3.17;0.70;;;9.80;99.90;;;;;;5032259;28;20033;-60
2023/10/29 05:19:49;;;;;;;5.88;1.00;;;9.80;99.90;;;;;;5014380;28;20412;-63
2023/10/29 05:22:15;;;;;;;1.45;0.52;;;9.80;99.90;;;;;;5031975;28;20021;-60
2023/10/29 05:24:41;;;;;;;4.68;0.68;;;9.80;99.90;;;;;;5032569;28;20036;-60
2023/10/29 05:27:06;;;;;;;2.92;0.40;;;9.80;99.90;;;;;;5032012;28;20018;-55
2023/10/29 05:29:33;;;;;;;1.10;0.50;;;9.70;99.90;;;;;;5031320;28;20025;-59
2023/10/29 05:31:59;;;;;;;4.22;0.90;;;9.70;99.90;;;;;;5032004;28;20029;-61
2023/10/29 05:34:24;;;;;;;3.03;0.63;;;9.70;99.90;;;;;;5031933;28;20484;-60
2023/10/29 05:36:50;;;;;;;9.70;1.58;;;9.70;99.90;;;;;;5031868;28;20025;-59
2023/10/29 05:39:16;;;;;;;9.20;1.15;;;9.70;99.90;;;;;;5031723;28;20083;-59
2023/10/29 05:41:42;;;;;;;2.30;0.60;;;9.80;99.90;;;;;;5031918;28;20116;-59
2023/10/29 05:44:07;;;;;;;3.45;0.95;;;9.90;99.90;;;;;;5031248;28;20108;-60
2023/10/29 05:46:33;;;;;;;4.60;0.77;;;10.00;99.90;;;;;;5031861;28;20029;-63
2023/10/29 05:48:59;;;;;;;6.35;0.80;;;10.00;99.90;;;;;;5031576;28;20018;-61
2023/10/29 05:51:25;;;;;;;3.03;0.70;;;10.10;99.90;;;;;;5031332;28;20017;-59
2023/10/29 05:53:50;;;;;;;5.50;1.13;;;10.20;99.90;;;;;;5031533;28;20147;-60
2023/10/29 05:56:18;;;;;;;1.95;0.47;;;10.20;99.90;;;;;;5031475;28;20033;-59
2023/10/29 05:58:43;;;;;;;6.70;0.80;;;10.20;99.90;;;;;;5031199;28;20049;-60
2023/10/29 06:01:10;;;;;;;1.63;0.60;;;10.20;99.90;;;;;;5031334;28;20034;-63
2023/10/29 06:03:36;;;;;;;3.83;0.52;;;10.10;99.90;;;;;;5031401;28;20030;-54
2023/10/29 06:06:02;;;;;;;6.50;1.20;;;10.10;99.90;;;;;;5031356;28;20407;-64
2023/10/29 06:08:27;;;;;;;5.55;0.73;;;10.10;99.90;;;;;;5031359;28;20025;-50
2023/10/29 06:10:53;;;;;;;3.50;1.08;;;10.20;99.90;;;;;;5031451;28;20044;-60
2023/10/29 06:13:19;;;;;;;3.63;0.90;;;10.20;99.90;;;;;;5031014;28;20433;-61
2023/10/29 06:15:44;;;;;;;5.78;1.20;;;10.40;99.90;;;;;;5031121;28;20028;-59
2023/10/29 06:18:10;;;;;;;7.28;0.90;;;10.50;99.90;;;;;;5031461;28;20029;-56
2023/10/29 06:20:40;;;;;;;7.28;1.35;;;10.60;99.90;;;;;;5030832;28;20034;-60
2023/10/29 06:23:05;;;;;;;8.48;1.08;;;10.60;99.90;;;;;;5031221;28;20113;-54
2023/10/29 06:25:31;;;;;;;5.18;1.58;;;10.60;99.90;;;;;;5030904;28;20060;-53
2023/10/29 06:27:57;;;;;;;3.85;1.10;;;10.50;99.90;;;;;;5030752;28;20076;-64
2023/10/29 06:30:22;;;;;;;4.68;0.90;;;10.50;99.90;;;;;;5031117;28;20034;-71
2023/10/29 06:32:48;;;;;;;2.40;0.77;;;10.50;99.90;;;;;;5030948;28;20531;-60
2023/10/29 06:35:13;;;;;;;0.73;0.52;;;10.50;99.90;;;;;;5030778;28;20026;-62
2023/10/29 06:37:39;;;;;;;4.18;0.93;;;10.40;99.90;;;;;;5030970;28;20021;-58
2023/10/29 06:40:06;;;;;;;3.50;0.82;;;10.40;99.90;;;;;;5030263;28;20029;-60
2023/10/29 06:42:32;;;;;;;1.90;0.75;;;10.40;99.90;;;;;;5030367;28;20029;-59
2023/10/29 06:44:57;;;;;;;5.45;0.98;;;10.30;99.90;;;;;;5030684;28;20033;-59
2023/10/29 06:47:23;;;;;;;2.38;0.80;;;10.30;99.90;;;;;;5030867;28;20101;-60
2023/10/29 06:49:50;;;;;;;2.92;0.70;;;10.20;99.90;;;;;;5030778;28;20026;-65
2023/10/29 06:52:16;;;;;;;4.40;0.95;;;10.20;99.90;;;;;;5030823;28;20029;-55
2023/10/29 06:54:42;;;;;;;5.00;0.80;;;10.20;99.90;;;;;;5030659;28;20540;-52
2023/10/29 06:57:08;;;;;;;3.20;0.70;;;10.20;99.90;;;;;;5030482;28;20026;-56
2023/10/29 06:59:34;;;;;;;4.63;0.90;;;10.20;99.90;;;;;;5030286;28;20084;-61
2023/10/29 07:01:59;;;;;;;2.50;0.70;;;10.10;99.90;;;;;;5030498;28;20033;-60
2023/10/29 07:04:28;;;;;;;7.53;1.17;;;10.10;99.90;;;;;;5030426;28;20025;-61
2023/10/29 07:06:53;;;;;;;3.35;0.60;;;10.10;99.90;;;;;;5030495;28;20026;-61
2023/10/29 07:09:19;;;;;;;3.80;1.02;;;10.20;99.90;;;;;;5030474;28;20104;-62
2023/10/29 07:11:45;;;;;;;3.05;0.73;;;10.20;99.90;;;;;;5030291;28;20038;-63
2023/10/29 07:14:12;;;;;;;3.78;1.17;;;10.30;99.90;;;;;;5030824;28;20400;-61
2023/10/29 07:16:43;;;;;;;6.78;1.50;;;10.40;99.90;;;;;;5030664;28;20041;-61
2023/10/29 07:19:10;;;;;;;8.65;0.90;;;10.40;99.90;;;;;;5030579;28;20387;-61
2023/10/29 07:21:36;;;;;;;5.72;1.10;;;10.50;99.90;;;;;;5030378;28;20389;-63
2023/10/29 07:24:04;;;;;;;6.35;1.08;;;10.50;99.90;;;;;;5030357;28;20033;-53
2023/10/29 07:26:29;;;;;;;5.15;1.13;;;10.50;99.90;;;;;;5030397;28;20036;-51
2023/10/29 07:28:55;;;;;;;3.22;0.80;;;10.60;99.90;;;;;;5030238;28;20105;-60
2023/10/29 07:31:20;;;;;;;0.80;0.45;;;10.60;99.90;;;;;;5030518;28;20029;-62
2023/10/29 07:33:47;;;;;;;5.05;0.60;;;10.50;99.90;;;;;;5030209;28;20041;-60
2023/10/29 07:36:12;;;;;;;4.90;0.63;;;10.50;99.90;;;;;;5030416;28;20025;-61
2023/10/29 07:38:38;;;;;;;3.85;0.85;;;10.40;99.90;;;;;;5030253;28;20542;-60
2023/10/29 07:41:03;;;;;;;2.65;0.55;;;10.50;99.90;;;;;;5030167;28;20448;-60
2023/10/29 07:43:29;;;;;;;1.63;1.00;;;10.40;99.90;;;;;;5030350;28;20030;-60
2023/10/29 07:46:02;;;;;;;1.10;0.68;;;10.40;99.90;;;;;;5029941;28;20030;-60
2023/10/29 07:48:27;;;;;;;4.63;0.82;;;10.40;99.90;;;;;;5030201;28;20492;-60
2023/10/29 07:50:53;;;;;;;5.80;0.88;;;10.50;99.90;;;;;;5030082;28;20104;-61
2023/10/29 07:53:19;;;;;;;4.20;0.90;;;10.50;99.90;;;;;;5032661;28;20432;-59
2023/10/29 07:55:45;;;;;;;2.38;0.90;;;10.50;99.90;;;;;;5033661;28;20029;-62
2023/10/29 07:58:11;;;;;;;10.05;1.05;;;10.50;99.90;;;;;;5033965;28;20025;-60
2023/10/29 08:00:37;;;;;;;4.68;0.68;;;10.50;99.90;;;;;;5033293;28;20049;-61
2023/10/29 08:03:02;;;;;;;3.88;0.82;;;10.50;99.90;;;;;;5033685;28;20014;-61
2023/10/29 08:05:28;;;;;;;8.95;1.05;;;10.50;99.90;;;;;;5033353;28;20036;-60
2023/10/29 08:07:54;;;;;;;1.75;0.57;;;10.50;99.90;;;;;;5033547;28;20099;-62
2023/10/29 08:10:19;;;;;;;4.18;0.75;;;10.60;99.90;;;;;;5033407;28;20026;-61
2023/10/29 08:12:45;;;;;;;4.68;0.77;;;10.70;99.90;;;;;;5033520;28;20100;-61
2023/10/29 08:15:11;;;;;;;1.40;0.50;;;10.80;99.90;;;;;;5033547;28;20025;-60
2023/10/29 08:17:36;;;;;;;3.88;0.88;;;10.90;99.90;;;;;;5033357;28;20053;-61
2023/10/29 08:20:02;;;;;;;2.08;0.60;;;11.00;99.90;;;;;;5033452;28;20069;-59
2023/10/29 08:22:28;;;;;;;3.33;0.75;;;11.10;99.90;;;;;;5032741;28;20022;-61
2023/10/29 08:24:54;;;;;;;7.45;1.08;;;11.30;99.90;;;;;;5033343;28;20396;-61
2023/10/29 08:27:20;;;;;;;7.85;1.73;;;11.70;99.90;;;;;;5033312;28;20018;-60
2023/10/29 08:29:46;;;;;;;6.30;0.85;;;12.30;99.90;;;;;;5033241;28;20108;-61
2023/10/29 08:32:12;;;;;;;12.75;2.13;;;13.00;99.90;;;;;;5030021;28;20474;-61
2023/10/29 08:34:38;;;;;;;8.70;1.05;;;13.50;99.90;;;;;;5022447;28;20420;-61
2023/10/29 08:37:04;;;;;;;7.13;0.73;;;14.10;99.90;;;;;;5032874;28;20484;-60
2023/10/29 08:39:31;;;;;;;7.93;1.30;;;14.30;99.90;;;;;;5032727;28;20021;-60
2023/10/29 08:41:57;;;;;;;5.03;1.25;;;14.30;99.90;;;;;;5032847;28;20037;-60
2023/10/29 08:44:22;;;;;;;7.07;1.42;;;14.10;99.90;;;;;;5032778;28;20029;-61
2023/10/29 08:46:48;;;;;;;12.00;1.90;;;13.80;99.90;;;;;;5033056;28;20026;-60
2023/10/29 08:49:13;;;;;;;3.67;0.98;;;13.50;99.90;;;;;;5032974;28;20378;-60
2023/10/29 08:51:39;;;;;;;10.70;1.60;;;13.30;99.90;;;;;;5032750;28;20087;-61
2023/10/29 08:54:05;;;;;;;9.85;1.52;;;13.20;99.90;;;;;;5032574;28;20488;-60
2023/10/29 08:56:34;;;;;;;8.73;1.30;;;13.10;99.90;;;;;;5032630;28;20025;-60
2023/10/29 08:59:02;;;;;;;;;;;13.00;99.90;;;;;;5032508;28;20042;-62
2023/10/29 09:01:28;;;;;;;5.90;1.50;;;12.90;99.90;;;;;;5032234;28;20131;-61
2023/10/29 09:03:55;;;;;;;9.15;1.27;;;12.90;99.90;;;;;;5031820;28;20112;-61
2023/10/29 09:06:21;;;;;;;5.35;0.95;;;12.80;99.90;;;;;;5032371;28;20053;-61
2023/10/29 09:08:46;;;;;;;9.38;1.40;;;12.90;99.90;;;;;;5032621;28;20033;-61
2023/10/29 09:11:15;;;;;;;6.20;1.00;;;12.80;99.90;;;;;;5032285;28;20029;-61
2023/10/29 09:13:41;;;;;;;9.13;1.40;;;12.80;99.90;;;;;;5032168;28;20073;-62
2023/10/29 09:16:07;;;;;;;9.15;1.63;;;12.80;99.90;;;;;;5032451;28;20041;-61
2023/10/29 09:18:32;;;;;;;12.90;1.70;;;12.80;99.90;;;;;;5032258;28;20740;-61
2023/10/29 09:20:58;;;;;;;9.13;1.40;;;12.80;99.90;;;;;;5031768;28;20094;-61
2023/10/29 09:23:23;;;;;;;8.88;1.35;;;12.80;99.90;;;;;;5031709;28;20080;-60
2023/10/29 09:25:49;;;;;;;7.78;1.85;;;12.90;99.90;;;;;;5031982;28;20498;-61
2023/10/29 09:28:16;;;;;;;7.78;1.40;;;12.90;99.90;;;;;;5032177;28;20017;-61
2023/10/29 09:30:42;;;;;;;8.73;1.40;;;12.90;99.90;;;;;;5031703;28;20384;-61
2023/10/29 09:33:09;;;;;;;11.55;1.63;;;12.90;99.90;;;;;;5023075;28;20028;-61
2023/10/29 09:35:35;;;;;;;9.77;1.67;;;12.80;99.90;;;;;;5031887;28;20029;-61
2023/10/29 09:38:01;;;;;;;6.63;1.77;;;12.80;99.90;;;;;;5031843;28;20057;-61
2023/10/29 09:40:27;;;;;;;9.00;1.52;;;12.80;99.90;;;;;;5031855;28;20080;-60
2023/10/29 09:42:54;;;;;;;5.72;1.27;;;12.80;99.90;;;;;;5031304;28;20105;-61
2023/10/29 09:45:27;;;;;;;6.65;2.00;;;12.80;99.90;;;;;;5031623;28;20045;-61
2023/10/29 09:47:53;;;;;;;7.00;1.83;;;12.80;99.90;;;;;;5027590;28;20037;-60
2023/10/29 09:50:21;;;;;;;14.20;1.60;;;12.80;99.90;;;;;;5031984;28;20026;-61
2023/10/29 09:52:52;;;;;;;10.18;1.80;;;12.90;99.90;;;;;;5031157;28;20131;-61
2023/10/29 09:55:20;;;;;;;8.40;1.77;;;12.80;99.90;;;;;;5031584;28;20365;-60
2023/10/29 09:57:46;;;;;;;12.50;1.95;;;12.90;99.90;;;;;;5031448;28;20025;-61
2023/10/29 10:00:15;;;;;;;17.88;1.85;;;12.90;99.90;;;;;;5030743;28;20170;-60
2023/10/29 10:02:55;;;;;;;11.57;1.23;;;12.90;99.90;;;;;;5031213;28;20036;-62
2023/10/29 10:05:22;;;;;;;6.90;1.20;;;12.90;99.90;;;;;;5030811;28;20384;-61
2023/10/29 10:07:49;;;;;;;9.80;1.23;;;12.90;99.90;;;;;;5030763;28;20032;-59
2023/10/29 10:10:15;;;;;;;11.93;1.75;;;13.00;99.90;;;;;;5031326;28;20025;-62
2023/10/29 10:12:48;;;;;;;8.25;1.25;;;13.00;99.90;;;;;;5031014;28;20026;-61
2023/10/29 10:15:16;;;;;;;10.25;1.52;;;13.00;99.90;;;;;;5028501;28;20081;-63
2023/10/29 10:18:03;;;;;;;2.13;0.90;;;13.00;99.90;;;;;;5029963;28;20031;-61
2023/10/29 10:20:31;;;;;;;2.05;0.95;;;12.70;99.90;;;;;;5029993;28;20178;-61
2023/10/29 10:23:02;;;;;;;1.58;0.63;;;12.30;99.90;;;;;;5030255;28;20107;-60
2023/10/29 10:25:28;;;;;;;7.97;1.35;;;12.10;99.90;;;;;;5030442;28;20033;-60
2023/10/29 10:27:56;;;;;;;9.00;1.40;;;11.80;99.90;;;;;;5030347;28;20032;-61
2023/10/29 10:30:28;;;;;;;10.18;1.60;;;11.70;99.90;;;;;;5030956;28;20033;-62
2023/10/29 10:33:07;;;;;;;8.70;1.23;;;11.60;99.90;;;;;;5030974;28;20025;-62
2023/10/29 10:35:46;;;;;;;8.40;1.35;;;11.60;99.90;;;;;;5027947;28;20025;-62
2023/10/29 10:38:14;;;;;;;1.90;0.63;;;11.60;99.90;;;;;;5031094;28;20116;-61
2023/10/29 10:40:40;;;;;;;4.68;1.17;;;11.60;99.90;;;;;;5030734;28;20033;-60
2023/10/29 10:43:07;;;;;;;6.70;0.80;;;11.60;99.90;;;;;;5030896;28;20384;-61
2023/10/29 10:45:35;;;;;;;9.05;1.52;;;11.60;99.90;;;;;;5026176;28;20582;-60
2023/10/29 10:48:05;;;;;;;4.85;0.82;;;11.60;99.90;;;;;;5030789;28;20053;-60
2023/10/29 10:50:31;;;;;;;;;;;11.60;99.90;;;;;;5031210;28;20026;-61
2023/10/29 10:52:57;;;;;;;9.10;0.85;;;11.60;99.90;;;;;;5030581;28;19915;-61
2023/10/29 10:55:25;;;;;;;1.65;0.60;;;11.60;99.90;;;;;;5030800;28;20030;-61
2023/10/29 10:57:51;;;;;;;6.05;1.05;;;11.60;99.90;;;;;;5030739;28;20091;-61
2023/10/29 11:00:18;;;;;;;4.82;1.20;;;11.70;99.90;;;;;;5030484;28;20972;-61
2023/10/29 11:02:45;;;;;;;2.08;0.82;;;11.70;99.90;;;;;;5030760;28;20035;-61
2023/10/29 11:05:12;;;;;;;9.45;0.77;;;11.70;99.90;;;;;;5030497;28;20468;-61
2023/10/29 11:07:39;;;;;;;4.63;1.27;;;11.70;99.90;;;;;;5030559;28;20025;-60
2023/10/29 11:10:08;;;;;;;4.70;0.88;;;11.70;99.90;;;;;;5030668;28;20029;-60
2023/10/29 11:12:38;;;;;;;3.70;0.70;;;11.70;99.90;;;;;;5030816;28;20033;-59
2023/10/29 11:15:16;;;;;;;10.38;1.42;;;11.60;99.90;;;;;;5030416;28;20033;-59
2023/10/29 11:17:52;;;;;;;7.65;1.08;;;11.60;99.90;;;;;;5030536;28;20381;-59
2023/10/29 11:20:36;;;;;;;2.45;0.90;;;11.60;99.90;;;;;;5030466;28;20052;-60
2023/10/29 11:23:16;;;;;;;4.70;1.15;;;11.60;99.90;;;;;;5030509;28;20087;-60
2023/10/29 11:25:42;;;;;;;8.88;1.65;;;11.70;99.90;;;;;;5030276;28;20405;-58
2023/10/29 11:28:31;;;;;;;6.72;1.42;;;11.70;99.90;;;;;;5033415;28;20065;-61
2023/10/29 11:31:15;;;;;;;2.78;1.00;;;11.80;99.90;;;;;;5034351;28;20040;-61
2023/10/29 11:33:43;;;;;;;5.10;0.95;;;11.80;99.90;;;;;;5034123;28;20014;-60
2023/10/29 11:36:27;;;;;;;5.85;0.85;;;11.90;99.90;;;;;;5034300;28;20028;-60
2023/10/29 11:38:53;;;;;;;2.80;0.93;;;12.00;99.90;;;;;;5033992;28;20033;-59
2023/10/29 11:41:35;;;;;;;4.47;1.48;;;12.10;99.90;;;;;;5034255;28;20377;-60
2023/10/29 11:44:25;;;;;;;5.10;0.90;;;12.30;99.90;;;;;;5034089;28;20029;-59
2023/10/29 11:47:02;;;;;;;1.13;0.60;;;12.40;99.90;;;;;;5021906;28;20632;-61
2023/10/29 11:49:30;;;;;;;6.60;0.75;;;12.60;99.90;;;;;;5034113;28;20032;-60
2023/10/29 11:52:01;;;;;;;5.60;0.77;;;12.60;99.90;;;;;;5034072;28;20057;-61
2023/10/29 11:54:37;;;;;;;5.80;2.03;;;12.60;99.90;;;;;;5033992;28;20108;-61
2023/10/29 11:57:06;;;;;;;3.63;0.52;;;12.70;99.90;;;;;;5033866;28;20467;-61
2023/10/29 11:59:31;;;;;;;2.53;0.57;;;12.80;99.90;;;;;;5033599;28;20042;-60
2023/10/29 12:01:57;;;;;;;2.20;0.40;;;12.80;99.90;;;;;;5033847;28;20041;-61
2023/10/29 12:04:32;;;;;;;4.28;0.85;;;12.90;99.90;;;;;;5015994;28;20064;-60
2023/10/29 12:06:59;;;;;;;4.97;0.70;;;13.60;99.90;;;;;;5033679;28;20465;-60
2023/10/29 12:09:27;;;;;;;5.43;1.00;;;15.30;99.90;;;;;;5033773;28;20049;-60
2023/10/29 12:11:54;;;;;;;1.10;0.40;;;17.00;99.90;;;;;;5033336;28;20030;-61
2023/10/29 12:14:43;;;;;;;1.20;0.47;;;17.20;99.90;;;;;;5033574;28;20494;-61
2023/10/29 12:17:10;;;;;;;3.80;1.35;;;16.70;99.90;;;;;;5033521;28;20083;-61
2023/10/29 12:19:44;;;;;;;4.03;0.43;;;15.90;99.90;;;;;;5033515;28;20064;-60
2023/10/29 12:22:16;;;;;;;4.00;0.65;;;15.00;99.90;;;;;;5033413;28;20056;-61
2023/10/29 12:24:42;;;;;;;2.00;0.65;;;14.30;99.90;;;;;;5033500;28;20189;-60
2023/10/29 12:27:08;;;;;;;1.35;0.55;;;14.00;99.90;;;;;;5033393;28;20018;-60
2023/10/29 12:29:34;;;;;;;3.20;0.40;;;13.60;99.90;;;;;;5033421;28;20029;-60
2023/10/29 12:31:59;;;;;;;2.33;0.50;;;13.50;99.90;;;;;;5033095;28;20026;-60
2023/10/29 12:34:25;;;;;;;1.15;0.47;;;13.30;99.90;;;;;;5033255;28;20104;-61
2023/10/29 12:36:51;;;;;;;3.72;0.45;;;13.10;99.90;;;;;;5033091;28;20025;-60
2023/10/29 12:39:17;;;;;;;3.13;0.77;;;13.00;99.90;;;;;;5032085;28;20030;-60
2023/10/29 12:41:51;;;;;;;1.63;0.63;;;12.90;99.90;;;;;;5033168;28;20037;-61
2023/10/29 12:44:17;;;;;;;4.88;0.82;;;12.70;99.90;;;;;;5032742;28;20025;-61
2023/10/29 12:46:49;;;;;;;5.00;0.65;;;12.70;99.90;;;;;;5033104;28;20029;-61